Time;durP1;ratioP1;P1;durP2;ratioP2;P2;SDS_P1;SDS_P2;PMS_P1;PMS_P2;Temp;Humidity;BMP_temperature;BMP_pressure;BME280_temperature;BME280_humidity;BME280_pressure;Samples;Min_cycle;Max_cycle;Signal;HPM_P1;HPM_P2
2023/10/07 00:00:47;;;;;;;4.10;2.50;;;;;;;12.89;100.00;102108.59;5052915;28;20029;-81
2023/10/07 00:03:17;;;;;;;3.03;2.20;;;;;;;12.89;100.00;102108.59;5051850;28;20021;-82
2023/10/07 00:05:46;;;;;;;3.42;2.50;;;;;;;12.86;100.00;102111.22;5052676;28;20032;-81
2023/10/07 00:08:16;;;;;;;4.13;2.20;;;;;;;12.78;100.00;102093.88;5052527;28;20032;-81
2023/10/07 00:10:48;;;;;;;5.05;2.50;;;;;;;12.83;100.00;102104.28;5052229;28;20025;-82
2023/10/07 00:13:13;;;;;;;3.00;2.10;;;;;;;12.85;100.00;102083.41;5052502;28;20354;-81
2023/10/07 00:15:43;;;;;;;3.47;2.20;;;;;;;12.85;100.00;102091.22;5051981;28;20104;-81
2023/10/07 00:18:13;;;;;;;6.03;2.40;;;;;;;12.82;100.00;102089.50;5052456;28;20028;-81
2023/10/07 00:20:51;;;;;;;2.88;2.10;;;;;;;12.80;100.00;102084.31;5052789;28;20021;-81
2023/10/07 00:23:28;;;;;;;3.95;2.20;;;;;;;12.79;100.00;102077.38;5051585;28;20032;-81
2023/10/07 00:25:57;;;;;;;3.20;2.30;;;;;;;12.78;100.00;102074.75;5052386;28;20359;-82
2023/10/07 00:28:36;;;;;;;3.80;2.10;;;;;;;12.79;100.00;102076.50;5052200;28;20428;-82
2023/10/07 00:31:12;;;;;;;3.42;2.17;;;;;;;12.77;100.00;102075.66;5051815;28;20033;-81
2023/10/07 00:33:50;;;;;;;4.13;2.35;;;;;;;12.78;100.00;102077.38;5052247;28;20072;-82
2023/10/07 00:36:33;;;;;;;7.63;3.25;;;;;;;12.77;100.00;102080.88;5052185;28;20481;-81
2023/10/07 00:38:59;;;;;;;4.90;3.05;;;;;;;12.75;100.00;102080.84;5051740;28;20492;-82
2023/10/07 00:41:36;;;;;;;4.93;2.78;;;;;;;12.77;100.00;102079.13;5052014;28;20048;-82
2023/10/07 00:44:16;;;;;;;4.15;2.45;;;;;;;12.77;100.00;102081.72;5051814;28;20029;-82
2023/10/07 00:46:54;;;;;;;3.92;2.35;;;;;;;12.77;100.00;102091.28;5040204;28;20126;-82
2023/10/07 00:49:27;;;;;;;3.80;2.40;;;;;;;12.71;100.00;102086.09;5032150;28;20025;-82
2023/10/07 00:51:53;;;;;;;3.42;2.38;;;;;;;12.74;100.00;102105.19;5032072;28;20029;-82
2023/10/07 00:59:32;;;;;;;3.25;2.53;;;;;;;12.76;100.00;102086.97;5051852;28;20044;-82
2023/10/07 01:01:58;;;;;;;4.67;2.63;;;;;;;12.73;100.00;102080.00;5051908;28;20029;-82
2023/10/07 01:04:24;;;;;;;4.28;2.50;;;;;;;12.75;100.00;102067.84;5055634;28;20025;-82
2023/10/07 01:07:00;;;;;;;2.10;1.90;;;;;;;12.74;100.00;102071.31;5055420;28;20100;-82
2023/10/07 01:09:29;;;;;;;3.75;2.30;;;;;;;12.74;100.00;102073.91;5055709;28;20036;-81
2023/10/07 01:11:57;;;;;;;6.10;2.72;;;;;;;12.73;100.00;102063.50;5055657;28;20385;-82
2023/10/07 01:14:26;;;;;;;4.78;2.60;;;;;;;12.72;100.00;102064.38;5055691;28;20604;-82
2023/10/07 01:16:52;;;;;;;4.55;2.67;;;;;;;12.69;100.00;102053.97;5055599;28;20025;-82
2023/10/07 01:21:55;;;;;;;3.03;2.20;;;;;;;12.71;100.00;102068.75;5055546;28;20033;-81
2023/10/07 01:27:29;;;;;;;5.40;2.95;;;;;;;12.69;100.00;102080.91;5054694;28;20087;-82
2023/10/07 01:30:16;;;;;;;4.90;2.70;;;;;;;12.71;100.00;102096.50;5054406;28;20417;-81
2023/10/07 01:33:46;;;;;;;5.88;2.95;;;;;;;12.67;100.00;102077.44;5054943;28;20087;-81
2023/10/07 01:36:05;;;;;;;5.57;3.00;;;;;;;12.69;100.00;102085.22;5041322;28;20040;-82
2023/10/07 01:38:27;;;;;;;4.50;2.83;;;;;;;12.67;100.00;102085.25;5054903;28;20112;-82
2023/10/07 01:41:04;;;;;;;5.07;2.80;;;;;;;12.66;100.00;102080.91;5054530;28;20450;-82
2023/10/07 01:43:30;;;;;;;4.25;2.60;;;;;;;12.69;100.00;102075.69;5055249;28;20029;-82
2023/10/07 01:45:55;;;;;;;6.93;3.00;;;;;;;12.65;100.00;102072.25;5055009;28;20057;-82
2023/10/07 01:48:21;;;;;;;5.67;2.90;;;;;;;12.68;100.00;102079.16;5054296;28;20025;-82
2023/10/07 01:50:47;;;;;;;7.60;3.70;;;;;;;12.69;100.00;102073.09;5055177;28;20025;-81
2023/10/07 01:53:15;;;;;;;5.03;3.10;;;;;;;12.67;100.00;102057.44;5055032;28;20033;-81
2023/10/07 01:55:45;;;;;;;5.13;3.00;;;;;;;12.69;100.00;102057.47;5054411;28;20040;-81
2023/10/07 01:58:15;;;;;;;4.43;2.80;;;;;;;12.71;100.00;102055.72;5054539;28;20032;-81
2023/10/07 02:00:45;;;;;;;4.25;2.60;;;;;;;12.66;100.00;102052.25;5055055;28;20476;-81
2023/10/07 02:03:16;;;;;;;6.75;3.20;;;;;;;12.67;100.00;102049.63;5053810;28;20021;-81
2023/10/07 02:05:48;;;;;;;7.80;3.08;;;;;;;12.73;100.00;102053.94;5055004;28;20029;-81
2023/10/07 02:08:18;;;;;;;4.53;3.10;;;;;;;12.74;100.00;102058.28;5053638;28;20086;-81
2023/10/07 02:10:45;;;;;;;4.57;2.80;;;;;;;12.77;100.00;102063.50;5054440;28;20029;-81
2023/10/07 02:13:19;;;;;;;4.32;2.63;;;;;;;12.77;100.00;102060.88;5053863;28;20028;-81
2023/10/07 02:15:48;;;;;;;4.45;2.70;;;;;;;12.83;100.00;102060.00;5053892;28;20078;-81
2023/10/07 02:18:16;;;;;;;3.72;2.53;;;;;;;12.84;100.00;102043.47;5054524;28;20021;-81
2023/10/07 02:20:49;;;;;;;2.78;2.10;;;;;;;12.85;100.00;102045.22;5054704;28;20032;-82
2023/10/07 02:23:28;;;;;;;4.22;2.63;;;;;;;12.85;100.00;102045.22;5053615;28;20021;-81
2023/10/07 02:25:57;;;;;;;4.35;2.50;;;;;;;12.91;100.00;102062.56;5054774;28;20056;-82
2023/10/07 02:28:22;;;;;;;4.20;2.13;;;;;;;12.92;100.00;102053.88;5054321;28;20060;-81
2023/10/07 02:31:01;;;;;;;4.63;2.50;;;;;;;12.95;100.00;102046.00;5053879;28;20064;-81
2023/10/07 02:33:31;;;;;;;4.47;2.40;;;;;;;12.96;100.00;102046.03;5053936;28;20393;-81
2023/10/07 02:35:58;;;;;;;7.13;3.25;;;;;;;13.01;100.00;102063.34;5054254;28;20028;-81
2023/10/07 02:38:37;;;;;;;5.53;3.33;;;;;;;13.02;100.00;102059.88;5053243;28;20378;-81
2023/10/07 02:41:16;;;;;;;4.55;3.10;;;;;;;13.01;100.00;102058.13;5054270;28;20028;-81
2023/10/07 02:43:48;;;;;;;6.18;3.50;;;;;;;13.04;100.00;102060.72;5053103;28;20060;-82
2023/10/07 02:46:22;;;;;;;8.77;4.35;;;;;;;13.05;100.00;102060.75;5053551;28;20041;-81
2023/10/07 02:48:48;;;;;;;9.25;4.45;;;;;;;13.09;100.00;102051.16;5053943;28;20029;-81
2023/10/07 02:51:14;;;;;;;11.47;4.90;;;;;;;13.11;100.00;102052.88;5053139;28;20027;-82
2023/10/07 02:53:39;;;;;;;9.17;4.80;;;;;;;13.11;100.00;102050.28;5053967;28;20706;-81
2023/10/07 02:56:16;;;;;;;10.47;5.50;;;;;;;13.15;100.00;102056.31;5053386;28;20021;-82
2023/10/07 02:58:51;;;;;;;9.77;4.75;;;;;;;13.20;100.00;102053.69;5053138;28;20048;-82
2023/10/07 03:01:25;;;;;;;11.73;5.50;;;;;;;13.23;100.00;102056.28;5053721;28;20064;-82
2023/10/07 03:03:50;;;;;;;8.55;4.93;;;;;;;13.26;100.00;102066.69;5053824;28;20401;-82
2023/10/07 03:06:17;;;;;;;8.60;5.00;;;;;;;13.22;100.00;102058.03;5052845;28;20031;-82
2023/10/07 03:11:21;;;;;;;11.77;5.53;;;;;;;13.26;100.00;102059.72;5053550;28;19974;-81
2023/10/07 03:13:49;;;;;;;14.93;7.15;;;;;;;13.32;100.00;102040.56;5053070;28;20043;-82
2023/10/07 03:18:54;;;;;;;12.82;6.03;;;;;;;13.37;100.00;102050.94;5052820;28;20075;-82
2023/10/07 03:21:21;;;;;;;11.02;5.88;;;;;;;13.38;100.00;102057.91;5053073;28;20033;-82
2023/10/07 03:23:49;;;;;;;12.73;5.90;;;;;;;13.44;100.00;102055.28;5053289;28;20021;-82
2023/10/07 03:26:20;;;;;;;11.73;5.68;;;;;;;13.46;100.00;102048.28;5051461;28;20025;-82
2023/10/07 03:28:53;;;;;;;8.82;4.88;;;;;;;13.45;100.00;102049.22;5053393;28;20531;-82
2023/10/07 03:31:20;;;;;;;11.75;5.78;;;;;;;13.50;100.00;102047.41;5053108;28;20032;-82
2023/10/07 03:33:58;;;;;;;11.77;5.55;;;;;;;13.51;100.00;102049.13;5052326;28;20477;-82
2023/10/07 03:36:31;;;;;;;15.05;6.93;;;;;;;13.53;100.00;102051.72;5052892;28;20068;-81
2023/10/07 03:41:35;;;;;;;9.13;5.07;;;;;;;13.55;100.00;102042.16;5052497;28;20036;-82
2023/10/07 03:44:01;;;;;;;8.02;4.78;;;;;;;13.57;100.00;102049.06;5052982;28;20048;-82
2023/10/07 03:46:27;;;;;;;10.63;4.75;;;;;;;13.57;100.00;102040.41;5052407;28;20048;-82
2023/10/07 03:48:53;;;;;;;7.13;4.47;;;;;;;13.57;100.00;102035.19;5052257;28;20044;-82
2023/10/07 03:51:22;;;;;;;10.20;5.10;;;;;;;13.61;100.00;102039.50;5052949;28;20025;-82
2023/10/07 03:53:49;;;;;;;8.73;4.97;;;;;;;13.61;100.00;102022.97;5052288;28;20025;-82
2023/10/07 03:56:14;;;;;;;9.55;5.20;;;;;;;13.64;100.00;102026.41;5052707;28;20029;-81
2023/10/07 03:58:43;;;;;;;9.47;4.90;;;;;;;13.65;100.00;102022.06;5053130;28;20431;-81
2023/10/07 04:01:16;;;;;;;9.90;5.63;;;;;;;13.66;100.00;102019.44;5051484;28;20033;-81
2023/10/07 04:03:47;;;;;;;8.85;4.50;;;;;;;13.68;100.00;102016.84;5052686;28;20032;-82
2023/10/07 04:06:20;;;;;;;8.57;4.60;;;;;;;13.65;100.00;102003.81;5052628;28;20021;-81
2023/10/07 04:08:52;;;;;;;14.55;6.25;;;;;;;13.68;100.00;102014.22;5052209;28;20469;-81
2023/10/07 04:11:19;;;;;;;10.68;5.47;;;;;;;13.70;100.00;102002.91;5052540;28;20033;-82
2023/10/07 04:13:46;;;;;;;10.32;5.65;;;;;;;13.70;100.00;102000.28;5052675;28;20469;-82
2023/10/07 04:16:22;;;;;;;15.32;7.85;;;;;;;13.72;100.00;101995.94;5051553;28;20048;-82
2023/10/07 04:18:48;;;;;;;;;;;;;;;13.74;100.00;102004.56;5053310;28;20109;-82
2023/10/07 04:21:13;;;;;;;13.70;6.70;;;;;;;13.74;100.00;102027.22;5052634;28;19940;-81
2023/10/07 04:23:43;;;;;;;10.43;5.77;;;;;;;13.74;100.00;102024.59;5052187;28;20071;-82
2023/10/07 04:26:10;;;;;;;11.35;5.55;;;;;;;13.78;100.00;102013.25;5052219;28;20466;-81
2023/10/07 04:28:39;;;;;;;11.63;5.60;;;;;;;13.78;100.00;102013.25;5052532;28;20424;-81
2023/10/07 04:31:10;;;;;;;10.95;5.60;;;;;;;13.80;100.00;102026.28;5051835;28;20053;-82
2023/10/07 04:33:41;;;;;;;13.65;6.80;;;;;;;13.81;100.00;102013.22;5052290;28;20036;-82
2023/10/07 04:36:12;;;;;;;14.43;6.60;;;;;;;13.82;100.00;102016.69;5051711;28;20063;-82
2023/10/07 04:38:53;;;;;;;11.10;6.07;;;;;;;13.83;100.00;102019.28;5056686;28;20051;-81
2023/10/07 04:44:20;;;;;;;8.68;4.60;;;;;;;13.88;100.00;102032.28;5055640;28;20111;-82
2023/10/07 04:46:55;;;;;;;11.98;5.70;;;;;;;13.88;100.00;102027.94;5056257;28;20048;-82
2023/10/07 04:49:35;;;;;;;15.82;7.05;;;;;;;13.88;100.00;102021.84;5055144;28;20501;-83
2023/10/07 04:52:06;;;;;;;15.05;7.32;;;;;;;13.90;100.00;102030.53;5055804;28;20489;-83
2023/10/07 04:54:35;;;;;;;13.48;6.55;;;;;;;13.93;100.00;102034.84;5056231;28;20029;-82
2023/10/07 04:57:02;;;;;;;12.77;6.25;;;;;;;13.95;100.00;102043.53;5055593;28;20108;-83
2023/10/07 04:59:28;;;;;;;15.93;7.70;;;;;;;13.93;100.00;102043.56;5056258;28;20110;-83
2023/10/07 05:02:01;;;;;;;10.77;5.55;;;;;;;13.94;100.00;102041.78;5055897;28;20033;-82
2023/10/07 05:04:28;;;;;;;14.85;7.07;;;;;;;13.96;100.00;102040.03;5054547;28;20110;-82
2023/10/07 05:06:56;;;;;;;13.40;6.10;;;;;;;13.94;100.00;102032.22;5056055;28;20397;-81
2023/10/07 05:09:23;;;;;;;13.23;6.63;;;;;;;13.97;100.00;102047.84;5055753;28;20029;-81
2023/10/07 05:11:49;;;;;;;9.88;5.13;;;;;;;13.96;100.00;102027.84;5054717;28;20123;-81
2023/10/07 05:14:21;;;;;;;9.45;4.60;;;;;;;13.98;100.00;102033.91;5055604;28;20029;-81
2023/10/07 05:16:46;;;;;;;9.57;4.95;;;;;;;13.99;100.00;102035.66;5056017;28;20023;-85
2023/10/07 05:19:30;;;;;;;9.30;4.53;;;;;;;13.97;100.00;102041.75;5054991;28;20024;-81
2023/10/07 05:24:41;;;;;;;7.28;4.22;;;;;;;14.01;100.00;102043.47;5055607;28;20044;-81
2023/10/07 05:27:07;;;;;;;8.05;4.10;;;;;;;14.01;100.00;102043.47;5054515;28;20390;-81
2023/10/07 05:29:32;;;;;;;6.90;3.73;;;;;;;14.01;100.00;102039.09;5055677;28;20028;-78
2023/10/07 05:31:58;;;;;;;5.27;3.40;;;;;;;13.98;100.00;102028.69;5055373;28;20498;-78
2023/10/07 05:34:28;;;;;;;6.30;3.93;;;;;;;14.03;100.00;102037.34;5054730;28;20355;-78
2023/10/07 05:36:57;;;;;;;8.55;4.53;;;;;;;14.03;100.00;102023.41;5055546;28;20017;-80
2023/10/07 05:39:23;;;;;;;8.95;4.68;;;;;;;14.02;100.00;102012.13;5054247;28;20123;-79
2023/10/07 05:41:49;;;;;;;7.27;3.77;;;;;;;14.02;100.00;102014.72;5055127;28;20093;-78
2023/10/07 05:44:15;;;;;;;6.33;3.90;;;;;;;13.98;100.00;102010.41;5055135;28;20049;-78
2023/10/07 05:46:42;;;;;;;8.80;4.13;;;;;;;14.07;100.00;102021.66;5054383;28;20049;-78
2023/10/07 05:49:10;;;;;;;8.52;4.15;;;;;;;14.04;100.00;102023.41;5050441;28;20037;-78
2023/10/07 05:51:36;;;;;;;5.82;3.50;;;;;;;14.05;100.00;102029.50;5054824;28;20116;-80
2023/10/07 05:54:02;;;;;;;5.17;3.30;;;;;;;14.05;100.00;102038.19;5054457;28;20119;-80
2023/10/07 05:56:28;;;;;;;9.60;3.85;;;;;;;14.04;100.00;102039.09;5055341;28;20036;-80
2023/10/07 05:58:54;;;;;;;8.10;4.07;;;;;;;14.03;100.00;102032.13;5054981;28;20025;-80
2023/10/07 06:01:20;;;;;;;9.70;4.68;;;;;;;14.05;100.00;102022.53;5053735;28;20066;-80
2023/10/07 06:03:46;;;;;;;10.13;4.60;;;;;;;14.05;100.00;102032.97;5054633;28;20025;-81
2023/10/07 06:06:14;;;;;;;5.55;3.60;;;;;;;14.04;100.00;102039.09;5054829;28;20470;-82
2023/10/07 06:08:42;;;;;;;6.60;3.30;;;;;;;14.05;100.00;102040.81;5053665;28;20094;-82
2023/10/07 06:11:10;;;;;;;5.47;3.20;;;;;;;14.04;100.00;102040.81;5054696;28;20025;-82
2023/10/07 06:13:37;;;;;;;6.30;3.60;;;;;;;14.09;100.00;102046.88;5054954;28;20025;-82
2023/10/07 06:16:04;;;;;;;8.73;3.80;;;;;;;14.09;100.00;102048.59;5053857;28;20033;-82
2023/10/07 06:18:34;;;;;;;8.48;4.40;;;;;;;14.12;100.00;102053.78;5054513;28;20047;-83
2023/10/07 06:21:17;;;;;;;10.57;4.90;;;;;;;14.12;100.00;102056.41;5054613;28;20436;-82
2023/10/07 06:23:43;;;;;;;11.68;5.28;;;;;;;14.12;100.00;102040.72;5054106;28;20381;-83
2023/10/07 06:26:09;;;;;;;12.17;5.43;;;;;;;14.12;100.00;102041.63;5054375;28;20021;-83
2023/10/07 06:28:35;;;;;;;9.27;4.78;;;;;;;14.15;100.00;102030.25;5052983;28;20110;-83
2023/10/07 06:31:17;;;;;;;11.17;5.07;;;;;;;14.17;100.00;102047.63;5054567;28;20025;-83
2023/10/07 06:34:12;;;;;;;8.43;4.30;;;;;;;14.16;100.00;102060.72;5054524;28;20535;-83
2023/10/07 06:36:39;;;;;;;6.43;3.53;;;;;;;14.20;100.00;102071.09;5053430;28;20116;-82
2023/10/07 06:39:10;;;;;;;7.63;3.90;;;;;;;14.22;100.00;102081.53;5054177;28;20091;-82
2023/10/07 06:41:36;;;;;;;8.55;4.28;;;;;;;14.23;100.00;102070.19;5054133;28;20101;-81
2023/10/07 06:44:08;;;;;;;8.53;3.83;;;;;;;14.23;100.00;102062.38;5053162;28;20140;-81
2023/10/07 06:46:40;;;;;;;6.13;3.13;;;;;;;14.25;100.00;102065.84;5053658;28;20118;-81
2023/10/07 06:49:18;;;;;;;6.53;3.55;;;;;;;14.27;100.00;102064.06;5053382;28;20021;-81
2023/10/07 06:51:53;;;;;;;6.65;3.50;;;;;;;14.29;100.00;102053.59;5053197;28;20075;-82
2023/10/07 06:54:19;;;;;;;8.48;4.10;;;;;;;14.31;100.00;102063.13;5053563;28;20031;-81
2023/10/07 06:56:50;;;;;;;8.48;3.83;;;;;;;14.34;100.00;102065.72;5052792;28;20021;-82
2023/10/07 06:59:16;;;;;;;8.85;3.83;;;;;;;14.38;100.00;102073.53;5053328;28;20017;-83
2023/10/07 07:04:10;;;;;;;11.90;5.17;;;;;;;14.40;100.00;102083.06;5052789;28;20485;-83
2023/10/07 07:06:43;;;;;;;9.85;4.60;;;;;;;14.43;100.00;102076.94;5053974;28;20017;-84
2023/10/07 07:12:12;;;;;;;10.13;4.28;;;;;;;14.51;100.00;102077.72;5053198;28;20440;-84
2023/10/07 07:14:42;;;;;;;7.05;3.80;;;;;;;14.57;100.00;102074.19;5053442;28;20033;-84
2023/10/07 07:22:44;;;;;;;6.15;3.60;;;;;;;14.76;100.00;102091.38;5052866;28;20052;-80
2023/10/07 07:25:11;;;;;;;5.80;3.40;;;;;;;14.81;100.00;102086.09;5052354;28;20037;-83
2023/10/07 07:27:37;;;;;;;7.35;3.47;;;;;;;14.90;100.00;102092.94;5052864;28;20133;-82
2023/10/07 07:30:03;;;;;;;5.28;3.10;;;;;;;14.98;100.00;102096.31;5053235;28;20072;-83
2023/10/07 07:32:32;;;;;;;5.93;3.10;;;;;;;15.04;100.00;102103.22;5052435;28;20545;-82
2023/10/07 07:35:02;;;;;;;6.97;3.50;;;;;;;15.07;100.00;102105.78;5053050;28;20033;-82
2023/10/07 07:37:31;;;;;;;6.82;3.50;;;;;;;15.05;100.00;102090.09;5053271;28;20037;-83
2023/10/07 07:39:59;;;;;;;7.00;3.72;;;;;;;15.08;100.00;102092.69;5051937;28;20051;-82
2023/10/07 07:42:27;;;;;;;4.85;3.03;;;;;;;15.06;100.00;102089.22;5053101;28;20033;-82
2023/10/07 07:44:56;;;;;;;6.68;3.42;;;;;;;15.17;100.00;102099.53;5053037;28;20028;-83
2023/10/07 07:47:31;;;;;;;8.50;3.90;;;;;;;15.28;100.00;102083.69;5051624;28;20488;-83
2023/10/07 07:50:07;;;;;;;9.52;3.83;;;;;;;15.43;100.00;102093.91;5052524;28;20013;-83
2023/10/07 07:52:32;;;;;;;7.22;3.35;;;;;;;15.54;100.00;102096.34;5052441;28;20032;-83
2023/10/07 07:54:58;;;;;;;6.37;3.50;;;;;;;15.57;100.00;102092.84;5051156;28;20431;-83
2023/10/07 07:57:24;;;;;;;7.63;3.53;;;;;;;15.62;100.00;102098.00;5052365;28;20021;-84
2023/10/07 07:59:50;;;;;;;7.95;3.92;;;;;;;15.64;100.00;102104.06;5052370;28;20021;-85
2023/10/07 08:02:16;;;;;;;7.70;3.73;;;;;;;15.65;100.00;102103.19;5051889;28;20021;-82
2023/10/07 08:05:02;;;;;;;8.27;3.78;;;;;;;15.66;100.00;102118.84;5052804;28;20028;-80
2023/10/07 08:07:28;;;;;;;7.88;3.53;;;;;;;15.71;100.00;102124.84;5052327;28;20112;-79
2023/10/07 08:09:57;;;;;;;6.63;3.20;;;;;;;15.74;100.00;102122.19;5052705;28;20151;-79
2023/10/07 08:12:36;;;;;;;8.95;3.97;;;;;;;15.76;100.00;102122.19;5051974;28;20196;-80
2023/10/07 08:15:26;;;;;;;7.80;4.05;;;;;;;15.80;100.00;102120.38;5051794;28;20373;-78
2023/10/07 08:17:56;;;;;;;5.32;3.08;;;;;;;15.81;100.00;102127.34;5051572;28;20029;-79
2023/10/07 08:20:33;;;;;;;7.10;3.30;;;;;;;15.88;100.00;102132.47;5051596;28;20400;-80
2023/10/07 08:23:06;;;;;;;6.57;3.63;;;;;;;15.92;100.00;102124.56;5051231;28;20021;-79
2023/10/07 08:25:38;;;;;;;8.15;3.95;;;;;;;15.97;100.00;102118.34;5052353;28;20115;-79
2023/10/07 08:28:19;;;;;;;7.75;3.78;;;;;;;16.03;100.00;102105.16;5051506;28;20021;-78
2023/10/07 08:30:46;;;;;;;9.48;4.60;;;;;;;16.15;100.00;102113.69;5052549;28;20541;-81
2023/10/07 08:33:14;;;;;;;8.13;3.92;;;;;;;16.21;100.00;102118.81;5051501;28;20119;-78
2023/10/07 08:35:43;;;;;;;10.48;4.03;;;;;;;16.26;100.00;102110.84;5051643;28;20489;-79
2023/10/07 08:41:07;;;;;;;10.23;4.60;;;;;;;16.41;100.00;102112.31;5052786;28;20099;-79
2023/10/07 08:43:37;;;;;;;10.80;4.65;;;;;;;16.51;100.00;102116.47;5051501;28;20481;-79
2023/10/07 08:46:08;;;;;;;9.60;4.25;;;;;;;16.57;100.00;102123.34;5051794;28;20098;-79
2023/10/07 08:48:38;;;;;;;9.02;4.00;;;;;;;16.68;100.00;102122.25;5051661;28;20029;-79
2023/10/07 08:51:13;;;;;;;6.15;3.25;;;;;;;16.76;100.00;102119.47;5050796;28;20029;-79
2023/10/07 08:53:38;;;;;;;7.40;3.50;;;;;;;16.88;100.00;102112.25;5052261;28;20053;-79
2023/10/07 08:56:09;;;;;;;6.37;3.40;;;;;;;16.96;100.00;102105.97;5051758;28;20071;-79
2023/10/07 08:58:38;;;;;;;9.65;4.03;;;;;;;17.03;98.25;102103.22;5051803;28;20036;-79
2023/10/07 09:01:07;;;;;;;8.13;4.00;;;;;;;17.10;98.83;102103.06;5052206;28;20044;-79
2023/10/07 09:03:39;;;;;;;7.22;3.35;;;;;;;17.21;100.00;102113.28;5051542;28;20096;-78
2023/10/07 09:06:08;;;;;;;11.48;4.40;;;;;;;17.27;96.38;102105.28;5051217;28;20016;-79
2023/10/07 09:08:34;;;;;;;8.20;4.07;;;;;;;17.39;98.25;102116.41;5051986;28;20025;-80
2023/10/07 09:11:00;;;;;;;11.13;4.60;;;;;;;17.45;96.58;102113.59;5051228;28;20489;-82
2023/10/07 09:13:31;;;;;;;7.28;3.70;;;;;;;17.51;96.65;102116.06;5052004;28;20393;-81
2023/10/07 09:15:59;;;;;;;8.57;4.13;;;;;;;17.53;97.16;102111.66;5051962;28;20071;-81
2023/10/07 09:18:31;;;;;;;9.23;3.80;;;;;;;17.62;95.75;102097.44;5051089;28;20017;-82
2023/10/07 09:20:57;;;;;;;6.70;3.40;;;;;;;17.69;96.85;102098.16;5052017;28;20104;-82
2023/10/07 09:23:35;;;;;;;8.07;3.20;;;;;;;17.77;94.69;102095.34;5052007;28;20103;-82
2023/10/07 09:26:30;;;;;;;7.93;3.45;;;;;;;17.84;95.03;102082.03;5054574;28;20481;-81
2023/10/07 09:29:21;;;;;;;7.83;3.47;;;;;;;17.97;94.05;102089.59;5055495;28;20539;-79
2023/10/07 09:32:04;;;;;;;6.30;3.25;;;;;;;18.11;94.38;102097.13;5036772;28;20033;-83
2023/10/07 09:34:32;;;;;;;6.90;3.42;;;;;;;18.26;92.95;102096.69;5053965;28;20053;-83
2023/10/07 09:36:58;;;;;;;8.13;3.40;;;;;;;18.38;92.61;102092.88;5055239;28;20021;-83
2023/10/07 09:45:33;;;;;;;7.55;3.30;;;;;;;18.75;89.85;102099.66;5055114;28;20040;-81
2023/10/07 09:47:49;;;;;;;6.28;3.00;;;;;;;18.81;88.44;102095.97;5051978;28;20096;-83
2023/10/07 09:52:57;;;;;;;7.13;3.45;;;;;;;18.88;86.80;102102.81;5054294;28;20033;-83
2023/10/07 09:55:40;;;;;;;9.48;3.40;;;;;;;18.87;88.38;102090.56;5054883;28;20033;-81
2023/10/07 09:58:41;;;;;;;5.10;2.90;;;;;;;18.92;88.15;102093.03;5054781;28;20039;-81
2023/10/07 10:01:38;;;;;;;6.05;3.00;;;;;;;19.05;88.08;102101.44;5053845;28;20029;-81
2023/10/07 10:04:26;;;;;;;8.52;3.88;;;;;;;19.05;83.62;102089.16;5054576;28;20029;-81
2023/10/07 10:07:16;;;;;;;6.30;3.22;;;;;;;19.10;85.94;102092.50;5054060;28;20031;-81
2023/10/07 10:12:29;;;;;;;6.63;3.30;;;;;;;19.23;87.49;102090.34;5054678;28;20044;-82
2023/10/07 10:15:50;;;;;;;4.63;2.70;;;;;;;19.34;87.17;102099.69;5053977;28;20055;-81
2023/10/07 10:17:48;;;;;;;8.10;3.40;;;;;;;19.44;85.63;102109.00;5054130;28;20098;-81
2023/10/07 10:20:16;;;;;;;8.48;3.13;;;;;;;19.44;85.08;102111.63;5054438;28;20473;-81
2023/10/07 10:22:51;;;;;;;7.72;3.30;;;;;;;19.51;82.18;102123.66;5053543;28;20016;-81
2023/10/07 10:25:26;;;;;;;7.50;3.47;;;;;;;19.55;83.33;102125.31;5053585;28;20449;-81
2023/10/07 10:28:03;;;;;;;8.55;3.33;;;;;;;19.53;83.43;102119.22;5033704;28;20029;-81
2023/10/07 10:30:31;;;;;;;6.25;3.08;;;;;;;19.49;82.85;102124.63;5034471;28;20462;-81
2023/10/07 10:33:07;;;;;;;4.45;2.70;;;;;;;19.58;84.07;102130.47;5034154;28;20521;-81
2023/10/07 10:35:37;;;;;;;6.43;2.80;;;;;;;19.68;84.57;102125.75;5033285;28;20030;-81
2023/10/07 10:38:09;;;;;;;6.10;2.83;;;;;;;19.77;84.53;102121.94;5034227;28;20417;-81
2023/10/07 10:40:38;;;;;;;3.75;2.30;;;;;;;19.92;84.68;102130.28;5034262;28;20032;-81
2023/10/07 10:43:04;;;;;;;6.00;2.47;;;;;;;19.97;83.23;102126.56;5033175;28;20021;-81
2023/10/07 10:45:29;;;;;;;6.78;2.70;;;;;;;19.98;83.25;102133.56;5033503;28;20489;-81
2023/10/07 10:47:58;;;;;;;5.87;2.63;;;;;;;20.03;83.33;102125.50;5034254;28;20022;-80
2023/10/07 10:50:24;;;;;;;3.70;2.40;;;;;;;20.11;82.83;102118.19;5032904;28;20276;-81
2023/10/07 10:52:50;;;;;;;4.38;2.30;;;;;;;20.19;81.75;102116.13;5041773;28;20112;-81
2023/10/07 10:55:16;;;;;;;3.50;2.30;;;;;;;20.24;82.42;102115.97;5053265;28;20029;-81
2023/10/07 10:57:42;;;;;;;;;;;;;;;20.30;78.99;102118.41;5052184;28;20029;-80
2023/10/07 11:00:21;;;;;;;9.07;3.77;;;;;;;20.27;78.43;102117.63;5053412;28;20011;-81
2023/10/07 11:02:48;;;;;;;6.18;2.95;;;;;;;20.29;80.19;102118.44;5052757;28;20469;-81
2023/10/07 11:05:16;;;;;;;5.85;2.80;;;;;;;20.37;77.68;102117.25;5053362;28;20079;-81
2023/10/07 11:07:46;;;;;;;6.65;2.88;;;;;;;20.42;81.11;102114.44;5053034;28;20524;-81
2023/10/07 11:10:12;;;;;;;6.13;3.10;;;;;;;20.48;79.84;102114.22;5051859;28;20112;-81
2023/10/07 11:12:38;;;;;;;5.82;2.90;;;;;;;20.55;81.11;102104.28;5050735;28;20139;-81
2023/10/07 11:15:12;;;;;;;;;;;;;;;20.63;78.99;102114.53;5053198;28;20104;-80
2023/10/07 11:17:41;;;;;;;7.45;2.90;;;;;;;20.61;76.84;102111.09;5052884;28;19923;-82
2023/10/07 11:20:09;;;;;;;5.45;3.03;;;;;;;20.57;76.98;102113.00;5052555;28;20028;-82
2023/10/07 11:22:38;;;;;;;5.82;2.90;;;;;;;20.55;77.82;102109.56;5053295;28;20025;-81
2023/10/07 11:25:06;;;;;;;5.10;2.70;;;;;;;20.56;77.22;102095.44;5051969;28;20052;-81
2023/10/07 11:27:32;;;;;;;6.20;3.10;;;;;;;20.58;76.45;102098.91;5053516;28;20032;-81
2023/10/07 11:30:05;;;;;;;5.88;2.80;;;;;;;20.61;77.38;102100.56;5053479;28;20024;-81
2023/10/07 11:32:33;;;;;;;6.93;3.15;;;;;;;20.61;75.75;102092.63;5052306;28;20102;-80
2023/10/07 11:34:59;;;;;;;7.47;3.00;;;;;;;20.70;76.44;102096.72;5053403;28;20029;-81
2023/10/07 11:37:27;;;;;;;5.70;2.80;;;;;;;20.77;77.31;102095.63;5052925;28;20366;-81
2023/10/07 11:39:53;;;;;;;5.60;2.83;;;;;;;20.81;77.17;102094.56;5052284;28;20029;-80
2023/10/07 11:42:21;;;;;;;4.80;2.75;;;;;;;20.81;76.79;102097.19;5052587;28;20432;-81
2023/10/07 11:45:08;;;;;;;7.28;3.17;;;;;;;20.76;74.75;102097.38;5053086;28;20033;-80
2023/10/07 11:47:36;;;;;;;6.30;2.90;;;;;;;20.71;76.79;102090.53;5052125;28;20037;-81
2023/10/07 11:50:02;;;;;;;5.80;2.50;;;;;;;20.73;75.73;102096.59;5052482;28;20535;-81
2023/10/07 11:52:29;;;;;;;8.07;3.40;;;;;;;20.68;75.87;102095.00;5051713;28;20056;-80
2023/10/07 11:54:54;;;;;;;5.88;2.90;;;;;;;20.74;76.93;102101.84;5053005;28;20446;-80
2023/10/07 11:57:19;;;;;;;6.23;2.80;;;;;;;20.79;77.96;102099.03;5052736;28;20027;-81
2023/10/07 11:59:45;;;;;;;4.60;2.50;;;;;;;20.78;77.53;102095.53;5052330;28;20052;-81
2023/10/07 12:02:12;;;;;;;3.90;2.40;;;;;;;20.81;77.59;102106.00;5052420;28;20469;-81
2023/10/07 12:04:47;;;;;;;6.10;2.88;;;;;;;20.81;76.06;102102.47;5052660;28;20078;-80
2023/10/07 12:07:16;;;;;;;;;;;;;;;20.83;76.61;102103.28;5048842;28;20072;-81
2023/10/07 12:09:47;;;;;;;5.88;3.05;;;;;;;20.74;76.13;102104.47;5047976;28;20368;-80
2023/10/07 12:12:12;;;;;;;6.00;2.90;;;;;;;20.74;76.40;102106.25;5052544;28;20044;-81
2023/10/07 12:14:38;;;;;;;8.40;3.20;;;;;;;20.74;74.94;102101.84;5051950;28;20080;-80
2023/10/07 12:17:07;;;;;;;4.97;2.77;;;;;;;20.82;75.98;102109.47;5052454;28;20021;-80
2023/10/07 12:19:33;;;;;;;5.55;2.60;;;;;;;20.85;75.89;102100.56;5052704;28;20055;-81
2023/10/07 12:21:59;;;;;;;5.97;2.60;;;;;;;20.91;76.59;102109.09;5052020;28;20473;-81
2023/10/07 12:24:24;;;;;;;5.55;3.00;;;;;;;20.91;73.42;102095.91;5051681;28;20100;-80